Time;durP1;ratioP1;P1;durP2;ratioP2;P2;SDS_P1;SDS_P2;PMS_P1;PMS_P2;Temp;Humidity;BMP_temperature;BMP_pressure;BME280_temperature;BME280_humidity;BME280_pressure;Samples;Min_cycle;Max_cycle;Signal;HPM_P1;HPM_P2
2024/01/17 00:02:04;;;;;;;9.00;4.20;;;;;;;;;;5028419;28;20830;-85
2024/01/17 00:04:30;;;;;;;9.85;3.88;;;;;;;;;;5031039;28;20656;-85
2024/01/17 00:06:57;;;;;;;8.63;3.83;;;;;;;;;;5029137;28;20495;-85
2024/01/17 00:09:23;;;;;;;10.23;4.22;;;;;;;;;;5057095;28;20044;-86
2024/01/17 00:11:50;;;;;;;9.95;4.40;;;;;;;;;;5027992;28;20100;-86
2024/01/17 00:14:16;;;;;;;7.15;4.15;;;;;;;;;;5034341;28;20048;-85
2024/01/17 00:16:42;;;;;;;13.32;4.90;;;;;;;;;;5029490;28;20052;-84
2024/01/17 00:19:08;;;;;;;10.68;5.05;;;;;;;;;;5026866;28;20041;-85
2024/01/17 00:21:34;;;;;;;14.25;4.95;;;;;;;;;;5035308;28;20100;-83
2024/01/17 00:24:00;;;;;;;8.95;4.50;;;;;;;;;;5046955;28;20041;-87
2024/01/17 00:26:26;;;;;;;7.65;4.28;;;;;;;;;;5026665;28;20564;-83
2024/01/17 00:28:52;;;;;;;11.13;5.05;;;;;;;;;;5041366;28;20093;-86
2024/01/17 00:31:18;;;;;;;7.97;4.72;;;;;;;;;;5028702;28;20049;-84
2024/01/17 00:33:44;;;;;;;10.02;5.07;;;;;;;;;;5027524;28;20073;-85
2024/01/17 00:36:10;;;;;;;10.20;5.38;;;;;;;;;;5027460;28;20854;-82
2024/01/17 00:38:36;;;;;;;14.18;6.18;;;;;;;;;;5045457;28;20053;-85
2024/01/17 00:41:05;;;;;;;10.25;5.22;;;;;;;;;;5036987;28;20057;-84
2024/01/17 00:43:32;;;;;;;8.88;5.78;;;;;;;;;;5018334;28;20045;-84
2024/01/17 00:45:59;;;;;;;14.30;5.32;;;;;;;;;;5019730;28;20040;-86
2024/01/17 00:48:25;;;;;;;13.07;5.00;;;;;;;;;;5040386;28;20094;-85
2024/01/17 00:50:51;;;;;;;9.80;5.35;;;;;;;;;;5042040;28;20041;-84
2024/01/17 00:53:17;;;;;;;11.00;5.70;;;;;;;;;;5040669;28;20049;-85
2024/01/17 00:55:43;;;;;;;9.93;5.53;;;;;;;;;;5048252;28;20063;-83
2024/01/17 00:58:09;;;;;;;12.43;6.32;;;;;;;;;;5038952;28;20052;-86
2024/01/17 01:00:35;;;;;;;12.85;6.65;;;;;;;;;;5026849;28;20426;-83
2024/01/17 01:03:01;;;;;;;9.68;4.78;;;;;;;;;;5027228;28;20794;-83
2024/01/17 01:05:27;;;;;;;12.52;6.20;;;;;;;;;;5026142;28;20076;-85
2024/01/17 01:07:53;;;;;;;8.88;5.82;;;;;;;;;;5013098;28;20459;-84
2024/01/17 01:10:19;;;;;;;12.95;6.80;;;;;;;;;;5035335;28;20489;-85
2024/01/17 01:12:45;;;;;;;10.70;5.50;;;;;;;;;;5047205;28;20442;-83
2024/01/17 01:15:11;;;;;;;9.88;6.22;;;;;;;;;;5053413;28;20132;-83
2024/01/17 01:17:37;;;;;;;13.35;5.85;;;;;;;;;;5032599;28;20047;-83
2024/01/17 01:20:03;;;;;;;11.18;6.38;;;;;;;;;;5063439;28;20076;-84
2024/01/17 01:22:29;;;;;;;14.57;5.72;;;;;;;;;;5032211;28;20063;-85
2024/01/17 01:24:55;;;;;;;11.07;6.53;;;;;;;;;;5036542;28;20121;-83
2024/01/17 01:27:21;;;;;;;11.38;6.35;;;;;;;;;;5045582;28;20052;-83
2024/01/17 01:29:47;;;;;;;14.38;7.35;;;;;;;;;;5030848;28;20495;-84
2024/01/17 01:32:13;;;;;;;13.15;6.80;;;;;;;;;;5027091;28;20133;-84
2024/01/17 01:34:39;;;;;;;15.23;7.47;;;;;;;;;;5026625;28;20158;-85
2024/01/17 01:37:05;;;;;;;13.38;6.38;;;;;;;;;;5026571;28;20060;-84
2024/01/17 01:39:31;;;;;;;12.65;7.40;;;;;;;;;;5029943;28;20049;-83
2024/01/17 01:41:57;;;;;;;12.88;6.60;;;;;;;;;;5047226;28;20063;-85
2024/01/17 01:44:23;;;;;;;16.52;6.85;;;;;;;;;;5028353;28;20044;-83
2024/01/17 01:46:50;;;;;;;12.80;6.75;;;;;;;;;;5015382;28;20045;-84
2024/01/17 01:49:16;;;;;;;12.90;7.30;;;;;;;;;;5052750;28;20083;-85
2024/01/17 01:51:44;;;;;;;14.20;6.60;;;;;;;;;;5046338;28;20198;-85
2024/01/17 01:54:11;;;;;;;14.90;6.97;;;;;;;;;;5041977;28;20040;-85
2024/01/17 01:56:37;;;;;;;13.48;6.13;;;;;;;;;;5048075;28;20040;-84
2024/01/17 01:59:04;;;;;;;12.35;7.15;;;;;;;;;;5056615;28;20051;-84
2024/01/17 02:01:30;;;;;;;17.92;7.00;;;;;;;;;;5034303;28;20131;-83
2024/01/17 02:03:57;;;;;;;15.77;7.40;;;;;;;;;;5041207;28;20114;-86
2024/01/17 02:06:23;;;;;;;13.93;7.53;;;;;;;;;;5045045;28;20103;-85
2024/01/17 02:08:50;;;;;;;11.52;6.97;;;;;;;;;;5049164;28;20084;-84
2024/01/17 02:11:17;;;;;;;15.00;7.90;;;;;;;;;;5051254;28;20128;-83
2024/01/17 02:13:44;;;;;;;11.82;7.13;;;;;;;;;;5043388;28;20049;-86
2024/01/17 02:16:10;;;;;;;15.93;7.80;;;;;;;;;;5030328;28;20052;-84
2024/01/17 02:18:36;;;;;;;14.68;7.97;;;;;;;;;;5012874;28;20051;-83
2024/01/17 02:21:03;;;;;;;14.95;8.05;;;;;;;;;;5026556;28;20099;-83
2024/01/17 02:23:29;;;;;;;11.57;7.55;;;;;;;;;;5019531;28;20136;-86
2024/01/17 02:25:56;;;;;;;14.57;8.40;;;;;;;;;;5026125;28;20041;-84
2024/01/17 02:28:22;;;;;;;14.20;8.40;;;;;;;;;;5058702;28;20573;-83
2024/01/17 02:30:49;;;;;;;12.73;7.60;;;;;;;;;;5044968;28;20043;-84
2024/01/17 02:33:15;;;;;;;14.25;8.30;;;;;;;;;;5030993;28;20197;-83
2024/01/17 02:35:41;;;;;;;16.35;8.40;;;;;;;;;;5028815;28;20073;-87
2024/01/17 02:38:07;;;;;;;10.95;7.18;;;;;;;;;;5043854;28;20071;-83
2024/01/17 02:40:34;;;;;;;14.13;9.30;;;;;;;;;;5033879;28;20136;-87
2024/01/17 02:42:59;;;;;;;15.18;8.23;;;;;;;;;;5033974;28;20098;-85
2024/01/17 02:45:26;;;;;;;14.07;8.10;;;;;;;;;;5029201;28;20037;-84
2024/01/17 02:47:52;;;;;;;16.10;7.82;;;;;;;;;;5043013;28;20065;-84
2024/01/17 02:50:18;;;;;;;16.98;8.63;;;;;;;;;;5055762;28;20563;-82
2024/01/17 02:52:47;;;;;;;12.30;8.00;;;;;;;;;;5057694;28;20043;-83
2024/01/17 02:55:15;;;;;;;16.10;8.70;;;;;;;;;;5045817;28;20148;-84
2024/01/17 02:57:41;;;;;;;17.02;8.88;;;;;;;;;;5029406;28;20049;-84
2024/01/17 03:00:09;;;;;;;15.18;8.18;;;;;;;;;;5029001;28;20098;-84
2024/01/17 03:02:35;;;;;;;16.50;9.68;;;;;;;;;;5045314;28;20073;-83
2024/01/17 03:05:01;;;;;;;15.85;8.43;;;;;;;;;;5034729;28;20048;-86
2024/01/17 03:07:27;;;;;;;17.63;9.05;;;;;;;;;;5065311;28;20044;-83
2024/01/17 03:09:53;;;;;;;21.92;9.90;;;;;;;;;;5044583;28;20425;-83
2024/01/17 03:12:22;;;;;;;14.75;8.63;;;;;;;;;;5053570;28;20044;-83
2024/01/17 03:14:48;;;;;;;14.18;9.13;;;;;;;;;;5057553;28;20052;-83
2024/01/17 03:17:15;;;;;;;18.63;10.02;;;;;;;;;;5048714;28;20040;-86
2024/01/17 03:19:43;;;;;;;15.52;8.50;;;;;;;;;;5061012;28;20080;-83
2024/01/17 03:22:09;;;;;;;16.45;9.52;;;;;;;;;;5027910;28;20098;-83
2024/01/17 03:24:38;;;;;;;19.00;9.75;;;;;;;;;;5054434;28;20049;-84
2024/01/17 03:27:04;;;;;;;15.30;9.32;;;;;;;;;;5050366;28;20051;-83
2024/01/17 03:29:30;;;;;;;18.83;10.07;;;;;;;;;;5044974;28;20048;-83
2024/01/17 03:31:56;;;;;;;19.90;9.13;;;;;;;;;;5050370;28;20045;-84
2024/01/17 03:34:22;;;;;;;17.10;8.85;;;;;;;;;;5057835;28;20486;-84
2024/01/17 03:36:48;;;;;;;19.80;9.18;;;;;;;;;;5054180;28;20071;-83
2024/01/17 03:39:14;;;;;;;15.35;9.25;;;;;;;;;;5040671;28;20128;-83
2024/01/17 03:41:40;;;;;;;17.65;8.50;;;;;;;;;;5027950;28;20063;-83
2024/01/17 03:44:07;;;;;;;17.80;9.65;;;;;;;;;;5021828;28;20573;-86
2024/01/17 03:46:33;;;;;;;16.25;9.60;;;;;;;;;;5018959;28;20056;-83
2024/01/17 03:48:59;;;;;;;15.95;9.30;;;;;;;;;;5036592;28;20071;-85
2024/01/17 03:51:25;;;;;;;13.02;8.52;;;;;;;;;;5044624;28;20029;-86
2024/01/17 03:53:51;;;;;;;22.73;10.00;;;;;;;;;;5046803;28;20477;-84
2024/01/17 03:56:17;;;;;;;15.70;8.73;;;;;;;;;;5036340;28;20136;-83
2024/01/17 03:58:43;;;;;;;14.82;8.55;;;;;;;;;;5053395;28;20510;-84
2024/01/17 04:01:11;;;;;;;15.85;8.40;;;;;;;;;;5034581;28;20037;-83
2024/01/17 04:03:37;;;;;;;17.38;8.60;;;;;;;;;;5056928;28;20048;-84
2024/01/17 04:06:03;;;;;;;16.75;9.50;;;;;;;;;;5030873;28;20132;-84
2024/01/17 04:08:29;;;;;;;11.80;7.53;;;;;;;;;;5056315;28;20078;-83
2024/01/17 04:10:56;;;;;;;16.50;8.60;;;;;;;;;;5031089;28;20033;-83
2024/01/17 04:13:22;;;;;;;13.95;8.38;;;;;;;;;;5044117;28;20048;-83
2024/01/17 04:15:48;;;;;;;16.90;9.00;;;;;;;;;;5044053;28;20739;-84
2024/01/17 04:18:14;;;;;;;18.30;9.45;;;;;;;;;;5039524;28;20048;-84
2024/01/17 04:20:40;;;;;;;15.07;8.82;;;;;;;;;;5047568;28;20036;-83
2024/01/17 04:23:06;;;;;;;16.52;8.15;;;;;;;;;;5047497;28;20525;-86
2024/01/17 04:25:32;;;;;;;16.70;8.80;;;;;;;;;;5057843;28;20082;-84
2024/01/17 04:27:58;;;;;;;15.73;8.60;;;;;;;;;;5029210;28;20052;-84
2024/01/17 04:30:24;;;;;;;19.33;8.38;;;;;;;;;;5043423;28;20051;-84
2024/01/17 04:32:50;;;;;;;13.27;7.93;;;;;;;;;;5043581;28;20049;-86
2024/01/17 04:35:20;;;;;;;13.80;8.20;;;;;;;;;;5040832;28;20033;-83
2024/01/17 04:37:46;;;;;;;16.05;8.40;;;;;;;;;;5027395;28;20049;-82
2024/01/17 04:40:13;;;;;;;20.75;8.50;;;;;;;;;;5034059;28;20057;-85
2024/01/17 04:42:39;;;;;;;15.05;8.77;;;;;;;;;;5008788;28;20037;-84
2024/01/17 04:45:05;;;;;;;15.55;9.00;;;;;;;;;;5016646;28;20783;-84
2024/01/17 04:47:32;;;;;;;14.93;8.85;;;;;;;;;;5029711;28;20041;-83
2024/01/17 04:49:58;;;;;;;18.95;8.75;;;;;;;;;;5046242;28;20036;-83
2024/01/17 04:52:24;;;;;;;17.77;8.55;;;;;;;;;;5025821;28;20046;-85
2024/01/17 04:54:50;;;;;;;17.05;8.98;;;;;;;;;;5046413;28;20119;-83
2024/01/17 04:57:16;;;;;;;13.52;7.93;;;;;;;;;;5059667;28;20083;-83
2024/01/17 04:59:45;;;;;;;17.55;9.43;;;;;;;;;;5049151;28;20048;-86
2024/01/17 05:02:11;;;;;;;17.00;9.25;;;;;;;;;;5037777;28;20051;-83
2024/01/17 05:04:37;;;;;;;20.48;8.90;;;;;;;;;;5028445;28;20041;-83
2024/01/17 05:07:03;;;;;;;18.48;8.82;;;;;;;;;;5050853;28;20450;-84
2024/01/17 05:09:29;;;;;;;14.75;7.97;;;;;;;;;;5040847;28;20060;-84
2024/01/17 05:11:58;;;;;;;19.58;8.35;;;;;;;;;;5025184;28;20039;-85
2024/01/17 05:14:24;;;;;;;18.27;9.20;;;;;;;;;;5019547;28;20045;-83
2024/01/17 05:16:51;;;;;;;15.00;8.48;;;;;;;;;;5030465;28;20040;-85
2024/01/17 05:19:17;;;;;;;13.75;8.45;;;;;;;;;;5047298;28;20045;-83
2024/01/17 05:21:43;;;;;;;15.57;8.80;;;;;;;;;;5048632;28;20421;-84
2024/01/17 05:24:09;;;;;;;20.60;9.10;;;;;;;;;;5035585;28;20088;-85
2024/01/17 05:26:35;;;;;;;14.23;8.65;;;;;;;;;;5030404;28;20045;-84
2024/01/17 05:29:01;;;;;;;16.63;8.70;;;;;;;;;;5037269;28;20095;-84
2024/01/17 05:31:27;;;;;;;19.27;9.57;;;;;;;;;;5054820;28;20041;-84
2024/01/17 05:33:53;;;;;;;15.40;9.35;;;;;;;;;;5029531;28;20045;-84
2024/01/17 05:36:19;;;;;;;17.42;8.55;;;;;;;;;;5029454;28;20067;-84
2024/01/17 05:38:45;;;;;;;22.10;9.32;;;;;;;;;;5045952;28;20060;-84
2024/01/17 05:41:11;;;;;;;16.20;10.18;;;;;;;;;;5053347;28;20124;-83
2024/01/17 05:43:37;;;;;;;17.83;8.32;;;;;;;;;;5029201;28;20052;-83
2024/01/17 05:46:03;;;;;;;16.85;8.10;;;;;;;;;;5034348;28;20049;-84
2024/01/17 05:48:29;;;;;;;13.18;7.68;;;;;;;;;;5041940;28;20045;-87
2024/01/17 05:50:55;;;;;;;12.02;7.90;;;;;;;;;;5045702;28;20044;-85
2024/01/17 05:53:21;;;;;;;15.20;8.70;;;;;;;;;;5037937;28;20047;-84
2024/01/17 05:55:47;;;;;;;15.38;9.05;;;;;;;;;;5049939;28;20045;-83
2024/01/17 05:58:13;;;;;;;13.93;8.57;;;;;;;;;;5026066;28;20091;-83
2024/01/17 06:00:40;;;;;;;16.33;9.23;;;;;;;;;;5048876;28;20122;-86
2024/01/17 06:03:06;;;;;;;21.58;10.10;;;;;;;;;;5047514;28;20044;-86
2024/01/17 06:05:32;;;;;;;13.63;8.98;;;;;;;;;;5037592;28;20067;-83
2024/01/17 06:07:58;;;;;;;14.65;8.55;;;;;;;;;;5045619;28;20041;-84
2024/01/17 06:10:27;;;;;;;12.70;7.50;;;;;;;;;;5064416;28;20156;-84
2024/01/17 06:12:53;;;;;;;16.20;8.27;;;;;;;;;;5037722;28;20045;-83
2024/01/17 06:15:19;;;;;;;15.75;9.63;;;;;;;;;;5029001;28;20076;-84
2024/01/17 06:17:45;;;;;;;16.67;9.93;;;;;;;;;;5045694;28;20087;-85
2024/01/17 06:20:11;;;;;;;14.25;8.13;;;;;;;;;;5028704;28;20115;-83
2024/01/17 06:22:38;;;;;;;16.45;8.30;;;;;;;;;;5031466;28;20037;-82
2024/01/17 06:25:07;;;;;;;16.38;8.80;;;;;;;;;;5027527;28;20037;-82
2024/01/17 06:27:33;;;;;;;18.60;8.65;;;;;;;;;;5029151;28;20406;-82
2024/01/17 06:29:59;;;;;;;14.88;9.13;;;;;;;;;;5043388;28;20037;-87
2024/01/17 06:32:25;;;;;;;14.85;7.57;;;;;;;;;;5060200;28;20048;-86
2024/01/17 06:34:51;;;;;;;14.32;8.27;;;;;;;;;;5038859;28;20040;-85
2024/01/17 06:37:18;;;;;;;15.13;8.50;;;;;;;;;;5039691;28;20103;-83
2024/01/17 06:39:44;;;;;;;15.75;8.50;;;;;;;;;;5040371;28;20088;-83
2024/01/17 06:42:10;;;;;;;14.82;8.05;;;;;;;;;;5031265;28;20045;-87
2024/01/17 06:44:36;;;;;;;15.40;8.35;;;;;;;;;;5051555;28;20579;-83
2024/01/17 06:47:03;;;;;;;15.23;8.70;;;;;;;;;;5065268;28;20679;-83
2024/01/17 06:49:29;;;;;;;16.23;9.50;;;;;;;;;;5029341;28;20065;-83
2024/01/17 06:51:59;;;;;;;18.90;10.10;;;;;;;;;;5028164;28;20040;-85
2024/01/17 06:54:25;;;;;;;14.80;8.77;;;;;;;;;;5030831;28;20152;-82
2024/01/17 06:56:52;;;;;;;17.75;8.85;;;;;;;;;;5049927;28;20036;-85
2024/01/17 06:59:18;;;;;;;21.17;9.55;;;;;;;;;;5048341;28;20607;-83
2024/01/17 07:01:44;;;;;;;13.75;9.15;;;;;;;;;;5047975;28;20076;-83
2024/01/17 07:04:11;;;;;;;15.10;8.88;;;;;;;;;;5044287;28;20049;-83
2024/01/17 07:06:37;;;;;;;15.10;8.48;;;;;;;;;;5044186;28;20838;-83
2024/01/17 07:09:03;;;;;;;19.23;8.93;;;;;;;;;;5039842;28;20536;-84
2024/01/17 07:11:29;;;;;;;16.10;9.15;;;;;;;;;;5043430;28;20048;-83
2024/01/17 07:13:55;;;;;;;16.40;9.05;;;;;;;;;;5039008;28;20090;-82
2024/01/17 07:16:22;;;;;;;16.80;9.05;;;;;;;;;;5044866;28;20792;-84
2024/01/17 07:18:48;;;;;;;16.70;9.27;;;;;;;;;;5044793;28;20060;-83
2024/01/17 07:21:14;;;;;;;17.15;9.40;;;;;;;;;;5045099;28;20467;-83
2024/01/17 07:23:40;;;;;;;18.10;9.32;;;;;;;;;;5016245;28;20040;-83
2024/01/17 07:26:06;;;;;;;17.52;9.60;;;;;;;;;;5047791;28;20041;-86
2024/01/17 07:28:32;;;;;;;17.00;9.70;;;;;;;;;;5047793;28;20041;-83
2024/01/17 07:30:59;;;;;;;12.35;8.35;;;;;;;;;;5051803;28;20087;-85
2024/01/17 07:33:25;;;;;;;25.63;8.95;;;;;;;;;;5020578;28;20044;-82
2024/01/17 07:35:51;;;;;;;16.10;8.85;;;;;;;;;;5021029;28;20044;-84
2024/01/17 07:38:17;;;;;;;19.30;8.80;;;;;;;;;;5041242;28;20060;-83
2024/01/17 07:40:44;;;;;;;17.98;8.93;;;;;;;;;;5044963;28;20056;-87
2024/01/17 07:43:10;;;;;;;16.25;8.50;;;;;;;;;;5044639;28;20057;-82
2024/01/17 07:45:36;;;;;;;15.55;10.13;;;;;;;;;;5047225;28;20048;-82
2024/01/17 07:48:02;;;;;;;15.60;9.60;;;;;;;;;;5038407;28;20052;-83
2024/01/17 07:50:28;;;;;;;21.83;9.05;;;;;;;;;;5040545;28;20045;-83
2024/01/17 07:52:55;;;;;;;14.90;9.90;;;;;;;;;;5030628;28;20044;-84
2024/01/17 07:55:21;;;;;;;15.40;8.85;;;;;;;;;;5018156;28;20036;-82
2024/01/17 07:57:47;;;;;;;14.55;8.98;;;;;;;;;;5035373;28;20102;-87
2024/01/17 08:00:13;;;;;;;12.85;8.25;;;;;;;;;;5031136;28;20078;-84
2024/01/17 08:02:42;;;;;;;13.18;8.18;;;;;;;;;;5028798;28;20040;-84
2024/01/17 08:05:08;;;;;;;14.68;7.50;;;;;;;;;;5035679;28;20115;-83
2024/01/17 08:07:34;;;;;;;19.38;9.75;;;;;;;;;;5038876;28;20045;-84
2024/01/17 08:10:01;;;;;;;14.93;8.63;;;;;;;;;;5051399;28;20468;-83
2024/01/17 08:12:27;;;;;;;19.92;9.02;;;;;;;;;;5028815;28;20045;-83
2024/01/17 08:14:53;;;;;;;15.23;8.63;;;;;;;;;;5051659;28;20052;-84
2024/01/17 08:17:19;;;;;;;22.83;8.60;;;;;;;;;;5033835;28;20097;-83
2024/01/17 08:19:45;;;;;;;15.40;9.98;;;;;;;;;;5029708;28;20565;-83
2024/01/17 08:22:12;;;;;;;14.75;9.38;;;;;;;;;;5048894;28;20045;-83
2024/01/17 08:24:38;;;;;;;15.02;8.50;;;;;;;;;;5047263;28;20577;-85
2024/01/17 08:27:04;;;;;;;15.00;8.43;;;;;;;;;;5022790;28;20044;-85
2024/01/17 08:29:30;;;;;;;14.57;8.68;;;;;;;;;;5029629;28;20559;-83
2024/01/17 08:31:56;;;;;;;17.92;8.48;;;;;;;;;;5035571;28;20041;-83
2024/01/17 08:34:22;;;;;;;14.23;8.52;;;;;;;;;;5025092;28;20049;-85
2024/01/17 08:36:48;;;;;;;16.67;8.55;;;;;;;;;;5038364;28;20483;-83
2024/01/17 08:39:17;;;;;;;16.08;7.95;;;;;;;;;;5042913;28;20049;-85
2024/01/17 08:41:45;;;;;;;17.02;7.47;;;;;;;;;;5039637;28;20080;-85
2024/01/17 08:44:12;;;;;;;14.90;7.30;;;;;;;;;;5025391;28;20040;-83
2024/01/17 08:46:42;;;;;;;11.55;8.02;;;;;;;;;;5020658;28;20098;-83
2024/01/17 08:49:08;;;;;;;16.15;8.38;;;;;;;;;;5020303;28;20886;-83
2024/01/17 08:51:34;;;;;;;14.30;8.18;;;;;;;;;;5030952;28;20395;-86
2024/01/17 08:54:00;;;;;;;14.68;7.20;;;;;;;;;;5030741;28;20045;-83
2024/01/17 08:56:26;;;;;;;15.27;8.13;;;;;;;;;;5030214;28;20044;-83
2024/01/17 08:58:52;;;;;;;14.43;7.75;;;;;;;;;;5055626;28;20473;-83
2024/01/17 09:01:18;;;;;;;14.55;7.90;;;;;;;;;;5043489;28;20151;-83
2024/01/17 09:03:44;;;;;;;19.80;8.30;;;;;;;;;;5046815;28;20059;-85
2024/01/17 09:06:11;;;;;;;11.88;8.80;;;;;;;;;;5041889;28;20044;-84
2024/01/17 09:08:37;;;;;;;14.15;8.18;;;;;;;;;;5028772;28;20088;-82
2024/01/17 09:11:05;;;;;;;15.65;7.97;;;;;;;;;;5030290;28;20053;-86
2024/01/17 09:13:31;;;;;;;18.30;8.15;;;;;;;;;;5048893;28;20049;-84
2024/01/17 09:15:57;;;;;;;18.55;9.00;;;;;;;;;;5064535;28;20054;-82
2024/01/17 09:18:23;;;;;;;15.25;7.55;;;;;;;;;;5047319;28;20044;-88
2024/01/17 09:20:49;;;;;;;13.93;7.50;;;;;;;;;;5063803;28;20048;-85
2024/01/17 09:23:16;;;;;;;15.13;7.57;;;;;;;;;;5052586;28;20051;-83
2024/01/17 09:25:42;;;;;;;13.20;6.72;;;;;;;;;;5050117;28;20051;-83
2024/01/17 09:28:09;;;;;;;15.52;7.40;;;;;;;;;;5055815;28;20048;-84
2024/01/17 09:30:35;;;;;;;13.00;7.95;;;;;;;;;;5047493;28;20052;-83
2024/01/17 09:33:01;;;;;;;14.63;7.25;;;;;;;;;;5047680;28;20048;-83
2024/01/17 09:35:27;;;;;;;15.48;7.32;;;;;;;;;;5046208;28;20104;-83
2024/01/17 09:37:53;;;;;;;16.08;7.68;;;;;;;;;;5047174;28;20049;-82
2024/01/17 09:40:21;;;;;;;14.15;8.10;;;;;;;;;;5039384;28;20041;-83
2024/01/17 09:42:47;;;;;;;12.90;6.97;;;;;;;;;;5028164;28;20395;-83
2024/01/17 09:45:14;;;;;;;14.10;7.68;;;;;;;;;;5037755;28;20052;-84
2024/01/17 09:47:42;;;;;;;13.10;7.30;;;;;;;;;;5051507;28;20116;-83
2024/01/17 09:50:08;;;;;;;15.15;6.88;;;;;;;;;;5036299;28;20754;-82
2024/01/17 09:52:34;;;;;;;14.02;8.10;;;;;;;;;;5025257;28;20037;-86
2024/01/17 09:55:01;;;;;;;15.52;7.75;;;;;;;;;;5023101;28;20774;-82
2024/01/17 09:57:29;;;;;;;12.13;6.97;;;;;;;;;;5043412;28;20128;-82
2024/01/17 10:00:06;;;;;;;16.27;7.57;;;;;;;;;;5038343;28;20037;-85
2024/01/17 10:02:32;;;;;;;13.57;7.68;;;;;;;;;;5051828;28;20171;-83
2024/01/17 10:04:58;;;;;;;12.85;7.30;;;;;;;;;;5046594;28;20481;-82
2024/01/17 10:07:24;;;;;;;16.02;7.55;;;;;;;;;;5058579;28;20075;-84
2024/01/17 10:09:50;;;;;;;11.77;7.60;;;;;;;;;;5046537;28;20065;-83
2024/01/17 10:12:19;;;;;;;16.08;7.78;;;;;;;;;;5039368;28;20045;-84
2024/01/17 10:14:46;;;;;;;14.10;7.78;;;;;;;;;;5042740;28;20052;-83
2024/01/17 10:17:12;;;;;;;11.95;7.03;;;;;;;;;;5046412;28;20064;-84
2024/01/17 10:19:38;;;;;;;16.75;7.82;;;;;;;;;;5031330;28;20561;-83
2024/01/17 10:22:04;;;;;;;18.40;7.43;;;;;;;;;;5032057;28;20044;-83
2024/01/17 10:24:35;;;;;;;14.25;7.68;;;;;;;;;;5039163;28;20041;-84
2024/01/17 10:27:02;;;;;;;14.50;7.65;;;;;;;;;;5052087;28;20401;-85
2024/01/17 10:29:30;;;;;;;14.52;6.80;;;;;;;;;;5047938;28;20051;-86
2024/01/17 10:31:59;;;;;;;16.05;7.15;;;;;;;;;;5030228;28;20041;-87
2024/01/17 10:34:31;;;;;;;14.60;7.18;;;;;;;;;;5024073;28;20044;-85
2024/01/17 10:36:58;;;;;;;15.93;8.07;;;;;;;;;;5029164;28;20804;-84
2024/01/17 10:39:28;;;;;;;13.35;7.22;;;;;;;;;;5029477;28;20049;-83
2024/01/17 10:41:56;;;;;;;19.52;9.15;;;;;;;;;;5028351;28;20490;-83
2024/01/17 10:44:22;;;;;;;13.57;7.00;;;;;;;;;;5028632;28;20792;-87
2024/01/17 10:46:48;;;;;;;13.98;7.82;;;;;;;;;;5028014;28;20037;-84
2024/01/17 10:49:15;;;;;;;11.90;6.65;;;;;;;;;;5025634;28;20053;-84
2024/01/17 10:51:44;;;;;;;11.88;6.90;;;;;;;;;;5037436;28;20041;-86
2024/01/17 10:54:12;;;;;;;13.75;6.80;;;;;;;;;;5041996;28;20093;-86
2024/01/17 10:56:42;;;;;;;11.90;7.00;;;;;;;;;;5023798;28;20084;-85
2024/01/17 10:59:08;;;;;;;13.95;6.88;;;;;;;;;;5023527;28;20151;-85
2024/01/17 11:01:36;;;;;;;11.55;6.63;;;;;;;;;;5054733;28;20452;-85
2024/01/17 11:04:12;;;;;;;10.98;6.72;;;;;;;;;;5034132;28;20049;-85
2024/01/17 11:06:38;;;;;;;11.35;7.07;;;;;;;;;;5046693;28;20099;-84
2024/01/17 11:09:06;;;;;;;11.10;7.03;;;;;;;;;;5027607;28;20075;-85
2024/01/17 11:11:32;;;;;;;17.10;7.47;;;;;;;;;;5027644;28;20044;-85
2024/01/17 11:13:59;;;;;;;10.82;7.68;;;;;;;;;;5035531;28;20045;-84
2024/01/17 11:16:25;;;;;;;13.85;6.85;;;;;;;;;;5034858;28;20110;-84
2024/01/17 11:18:52;;;;;;;13.00;6.80;;;;;;;;;;5028605;28;20062;-84
2024/01/17 11:21:20;;;;;;;14.52;7.55;;;;;;;;;;5044657;28;20044;-84
2024/01/17 11:24:04;;;;;;;11.65;7.18;;;;;;;;;;5021506;28;20049;-84
2024/01/17 11:26:35;;;;;;;14.82;6.60;;;;;;;;;;5037235;28;20048;-85
2024/01/17 11:29:02;;;;;;;13.10;6.85;;;;;;;;;;5038184;28;20076;-85
2024/01/17 11:31:31;;;;;;;18.67;6.78;;;;;;;;;;5032748;28;20045;-86
2024/01/17 11:33:58;;;;;;;15.85;7.97;;;;;;;;;;5049257;28;20056;-88
2024/01/17 11:36:43;;;;;;;15.52;6.70;;;;;;;;;;5020824;28;20387;-88
2024/01/17 11:39:11;;;;;;;10.85;6.75;;;;;;;;;;5029760;28;20060;-85
2024/01/17 11:41:38;;;;;;;16.92;8.05;;;;;;;;;;5031934;28;20045;-85
2024/01/17 11:44:08;;;;;;;14.40;7.72;;;;;;;;;;5026941;28;20052;-84
2024/01/17 11:46:34;;;;;;;15.25;6.15;;;;;;;;;;5029852;28;20048;-86
2024/01/17 11:49:00;;;;;;;11.35;6.90;;;;;;;;;;5024808;28;20491;-84
2024/01/17 11:51:27;;;;;;;14.13;6.95;;;;;;;;;;5032842;28;20474;-85
2024/01/17 11:53:53;;;;;;;10.75;6.93;;;;;;;;;;5011955;28;20049;-85
2024/01/17 11:56:20;;;;;;;12.82;6.88;;;;;;;;;;5037822;28;20051;-85
2024/01/17 11:58:46;;;;;;;12.63;7.10;;;;;;;;;;5028116;28;20052;-84
2024/01/17 12:01:17;;;;;;;14.45;7.55;;;;;;;;;;5052456;28;20273;-83
2024/01/17 12:03:43;;;;;;;11.52;6.60;;;;;;;;;;5039272;28;20045;-86
2024/01/17 12:06:11;;;;;;;12.77;6.53;;;;;;;;;;5033046;28;20041;-84
2024/01/17 12:08:37;;;;;;;11.73;6.97;;;;;;;;;;5030829;28;20036;-87
2024/01/17 12:11:04;;;;;;;14.38;7.22;;;;;;;;;;5040080;28;20053;-84
2024/01/17 12:13:30;;;;;;;11.73;6.43;;;;;;;;;;5046036;28;20414;-84
2024/01/17 12:16:00;;;;;;;14.60;7.13;;;;;;;;;;5015484;28;20075;-84
2024/01/17 12:18:26;;;;;;;13.70;7.53;;;;;;;;;;5027422;28;20734;-83
2024/01/17 12:20:56;;;;;;;13.30;6.95;;;;;;;;;;5029321;28;20113;-85
2024/01/17 12:23:23;;;;;;;13.93;7.38;;;;;;;;;;5026243;28;20045;-83
2024/01/17 12:25:49;;;;;;;16.55;7.00;;;;;;;;;;5044386;28;20086;-86
2024/01/17 12:28:21;;;;;;;13.93;7.78;;;;;;;;;;5030599;28;20045;-84
2024/01/17 12:31:17;;;;;;;14.48;6.85;;;;;;;;;;5026093;28;20047;-86
2024/01/17 12:33:43;;;;;;;13.48;7.00;;;;;;;;;;5025062;28;20261;-85
2024/01/17 12:36:09;;;;;;;15.93;6.85;;;;;;;;;;5021091;28;20119;-83
2024/01/17 12:38:36;;;;;;;11.82;7.60;;;;;;;;;;5008515;28;20057;-83
2024/01/17 12:41:03;;;;;;;13.05;7.35;;;;;;;;;;5025704;28;20045;-86
2024/01/17 12:43:30;;;;;;;11.93;7.15;;;;;;;;;;5035973;28;20049;-88
2024/01/17 12:45:56;;;;;;;17.30;7.43;;;;;;;;;;5045330;28;20568;-86
2024/01/17 12:48:22;;;;;;;14.10;6.63;;;;;;;;;;5043263;28;20073;-84
2024/01/17 12:50:54;;;;;;;11.70;7.38;;;;;;;;;;5027843;28;20151;-84
2024/01/17 12:53:23;;;;;;;13.55;6.63;;;;;;;;;;5048396;28;20140;-86
2024/01/17 12:55:50;;;;;;;11.77;6.30;;;;;;;;;;5045857;28;20045;-87
2024/01/17 12:58:16;;;;;;;10.75;6.60;;;;;;;;;;5046980;28;20102;-86
2024/01/17 13:00:42;;;;;;;15.50;7.05;;;;;;;;;;5041498;28;20048;-84
2024/01/17 13:03:09;;;;;;;11.52;7.50;;;;;;;;;;5038735;28;20156;-83
2024/01/17 13:05:37;;;;;;;12.80;6.72;;;;;;;;;;5030314;28;20037;-84
2024/01/17 13:08:11;;;;;;;13.13;6.32;;;;;;;;;;5027181;28;20414;-85
2024/01/17 13:10:38;;;;;;;14.38;7.55;;;;;;;;;;5047094;28;20051;-86
2024/01/17 13:13:05;;;;;;;13.38;6.90;;;;;;;;;;5034086;28;20041;-88
2024/01/17 13:15:31;;;;;;;13.77;6.88;;;;;;;;;;5031715;28;20071;-84
2024/01/17 13:17:58;;;;;;;14.50;6.80;;;;;;;;;;5051229;28;20044;-86
2024/01/17 13:20:27;;;;;;;13.15;6.60;;;;;;;;;;5040160;28;20045;-84
2024/01/17 13:22:54;;;;;;;13.68;6.85;;;;;;;;;;5033237;28;20538;-83
2024/01/17 13:25:24;;;;;;;12.88;6.63;;;;;;;;;;5014356;28;20076;-86
2024/01/17 13:27:56;;;;;;;12.20;6.88;;;;;;;;;;5020187;28;20834;-85
2024/01/17 13:30:23;;;;;;;11.82;6.50;;;;;;;;;;5027358;28;20489;-83
2024/01/17 13:32:49;;;;;;;13.32;6.53;;;;;;;;;;5035744;28;20144;-85
2024/01/17 13:35:16;;;;;;;13.55;7.65;;;;;;;;;;5038108;28;20514;-86
2024/01/17 13:37:43;;;;;;;15.52;6.93;;;;;;;;;;5030836;28;20087;-85
2024/01/17 13:40:11;;;;;;;9.93;5.97;;;;;;;;;;5032472;28;20507;-86
2024/01/17 13:42:37;;;;;;;14.85;6.95;;;;;;;;;;5046813;28;20793;-86
2024/01/17 13:45:08;;;;;;;13.82;7.13;;;;;;;;;;5025206;28;20064;-85
2024/01/17 13:47:34;;;;;;;11.65;7.00;;;;;;;;;;5030823;28;20831;-85
2024/01/17 13:50:06;;;;;;;13.90;7.25;;;;;;;;;;5030710;28;20084;-84
2024/01/17 13:52:36;;;;;;;14.52;7.57;;;;;;;;;;5047921;28;20048;-87
2024/01/17 13:55:04;;;;;;;9.77;6.95;;;;;;;;;;5032581;28;20121;-85
2024/01/17 13:57:30;;;;;;;13.45;6.93;;;;;;;;;;5055290;28;20079;-85
2024/01/17 13:59:56;;;;;;;14.55;7.88;;;;;;;;;;5046241;28;20668;-85
2024/01/17 14:02:23;;;;;;;11.82;7.43;;;;;;;;;;5028266;28;20605;-89
2024/01/17 14:04:49;;;;;;;12.77;7.20;;;;;;;;;;5025338;28;20091;-83
2024/01/17 14:07:15;;;;;;;15.05;7.18;;;;;;;;;;5034294;28;20040;-86
2024/01/17 14:09:41;;;;;;;15.50;7.72;;;;;;;;;;5054356;28;20037;-84
2024/01/17 14:12:07;;;;;;;14.45;7.47;;;;;;;;;;5033029;28;20511;-85
2024/01/17 14:14:33;;;;;;;16.77;7.88;;;;;;;;;;5047377;28;20498;-84
2024/01/17 14:16:59;;;;;;;13.07;7.80;;;;;;;;;;5030280;28;20095;-83
2024/01/17 14:19:25;;;;;;;16.40;7.22;;;;;;;;;;5048420;28;20549;-83
2024/01/17 14:21:51;;;;;;;13.18;7.47;;;;;;;;;;5031916;28;20148;-85
2024/01/17 14:24:19;;;;;;;15.82;8.00;;;;;;;;;;5030449;28;20047;-84
2024/01/17 14:26:45;;;;;;;14.15;8.02;;;;;;;;;;5029892;28;20114;-84
2024/01/17 14:29:11;;;;;;;17.35;7.95;;;;;;;;;;5010318;28;20570;-86